Bras d'Or Lakes: Past 24 Hour Conditions

 

St. John's Int'l Airport

02:30 PM NDT 27 August 2014
This table is a summary of hourly weather conditions for the past 24 hours.
Date / Time
(NDT)
Wind(knots) Conditions Visibility(km) Pressure(kPa) Air tempC) Relative humidity(%) Dew pointC) Humidex
27 August 2014
14:30 WSW 26 gust 35 Mainly Sunny 24 101.0 23 62 16 27
13:30 WSW 20 Mainly Sunny 24 101.0 24 60 16 28
12:30 WSW 18 gust 28 Partly Cloudy 24 101.1 23 65 16 27
11:30 WSW 22 gust 28 Partly Cloudy 24 101.2 22 71 16 26
10:30 WSW 20 gust 27 Mainly Sunny 24 101.2 21 73 16 25
9:30 WSW 20 gust 27 Partly Cloudy 24 101.2 20 78 16 *
8:30 W 16 gust 22 Partly Cloudy 24 101.3 18 82 15 *
7:30 WSW 18 Partly Cloudy 24 101.4 16 91 15 *
6:30 WSW 17 gust 25 Partly Cloudy 24 101.4 15 94 14 *
5:30 WSW 17 gust 26 Mainly Clear 24 101.4 15 92 14 *
4:30 WSW 19 gust 27 Mainly Clear 24 101.5 15 92 14 *
3:30 WSW 18 gust 24 Mainly Clear 24 101.5 15 91 14 *
2:30 WSW 17 gust 24 Clear 24 101.6 15 93 14 *
1:30 WSW 17 gust 23 Mainly Clear 24 101.7 16 94 15 *
0:30 SW 13 Partly Cloudy 24 101.7 15 95 15 *
26 August 2014
23:30 SW 12 gust 18 Partly Cloudy 24 101.8 15 95 15 *
22:30 SW 8 Partly Cloudy 24 101.9 15 97 15 *
21:30 SSW 10 Partly Cloudy 24 102.0 15 98 14 *
20:30 S 8 Partly Cloudy 24 102.0 14 98 14 *
19:30 S 9 Mostly Cloudy 19 102.0 14 98 14 *
18:30 S 10 Cloudy 13 102.0 14 97 14 *
17:30 SSE 11 Cloudy 19 102.1 14 96 14 *
16:30 SSE 10 Cloudy 24 102.1 14 92 13 *
15:30 SE 10 Cloudy 24 102.2 13 91 12 *
14:30 SE 8 Cloudy 24 102.2 14 89 12 *
 
Map of Atlantic - Newfoundland marine weather areas Southwestern Grand Banks - 44138 Banquereau - 44139 Tail of the Bank - 44140 Nickerson Bank - 44251 Northeast Burgeo Bank - 44255 Blanc-Sablon Airport Cap Whittle Chevery Natashquan Airport Heath Point Miscou Island Grand Étang Ingonish Beach North Mountain St.Paul Island J.A. Douglas McCurdy Sydney Airport Charlottetown Airport East Point North Cape Argentia Bonavista Burgeo Cape Race Corner Brook Daniel's Harbour Englee Ferolle Point La Scie Port aux Basques Rocky Harbour Sagona Island St. Anthony Airport St. John's Int'l Airport St. Lawrence Stephenville Airport Twillingate Winterland Wreckhouse Cartwright Airport Mary's Harbour Grates Cove Pool's Island Marticot Island Long Pond Îles de la Madeleine Airport
Legend: buoyBuoy land stationLand Station